Time;durP1;ratioP1;P1;durP2;ratioP2;P2;SDS_P1;SDS_P2;PMS_P1;PMS_P2;Temp;Humidity;BMP_temperature;BMP_pressure;BME280_temperature;BME280_humidity;BME280_pressure;Samples;Min_cycle;Max_cycle;Signal;HPM_P1;HPM_P2
2021/03/28 00:01:18;;;;;;;1.58;0.20;;;20.70;50.40;;;;;;5038892;28;20029;-80
2021/03/28 00:03:56;;;;;;;0.70;0.15;;;20.70;50.50;;;;;;5009519;28;20117;-81
2021/03/28 00:06:36;;;;;;;1.15;0.20;;;20.70;50.40;;;;;;5014166;28;20582;-80
2021/03/28 00:09:10;;;;;;;2.00;0.20;;;20.70;50.50;;;;;;5011356;28;20018;-80
2021/03/28 00:11:52;;;;;;;1.08;0.30;;;20.70;50.50;;;;;;5024314;28;20029;-80
2021/03/28 00:14:24;;;;;;;0.85;0.25;;;20.70;50.50;;;;;;5026669;28;20611;-81
2021/03/28 00:16:50;;;;;;;0.93;0.10;;;20.70;50.40;;;;;;5026048;28;20104;-80
2021/03/28 00:19:25;;;;;;;1.27;0.20;;;20.60;50.50;;;;;;5005774;28;20036;-80
2021/03/28 00:21:54;;;;;;;1.38;0.20;;;20.70;50.50;;;;;;5006501;28;20120;-80
2021/03/28 00:24:28;;;;;;;1.30;0.35;;;20.60;50.50;;;;;;5012020;28;20017;-80
2021/03/28 00:27:19;;;;;;;0.50;0.10;;;20.70;50.50;;;;;;5006678;28;20036;-81
2021/03/28 00:29:51;;;;;;;0.80;0.20;;;20.60;50.40;;;;;;5047363;28;20025;-80
2021/03/28 00:32:25;;;;;;;1.58;0.32;;;20.70;50.40;;;;;;5053169;28;20043;-79
2021/03/28 00:35:04;;;;;;;2.25;0.10;;;20.60;50.40;;;;;;5016824;28;20030;-80
2021/03/28 00:37:30;;;;;;;0.65;0.10;;;20.60;50.40;;;;;;5033853;28;20037;-80
2021/03/28 00:40:22;;;;;;;1.23;0.38;;;20.60;50.40;;;;;;5009406;28;20081;-81
2021/03/28 00:42:51;;;;;;;0.55;0.15;;;20.60;50.50;;;;;;5007505;28;20064;-81
2021/03/28 00:45:29;;;;;;;1.02;0.25;;;20.60;50.40;;;;;;5025498;28;20026;-80
2021/03/28 00:48:11;;;;;;;1.63;0.10;;;20.60;50.40;;;;;;5018051;28;20025;-81
2021/03/28 00:50:55;;;;;;;0.80;0.10;;;20.60;50.40;;;;;;5021149;28;20532;-80
2021/03/28 00:53:43;;;;;;;0.93;0.10;;;20.60;50.40;;;;;;5017560;28;20128;-80
2021/03/28 00:56:38;;;;;;;0.70;0.20;;;20.60;50.50;;;;;;5011285;28;20021;-80
2021/03/28 00:59:14;;;;;;;1.10;0.20;;;20.60;50.40;;;;;;5011407;28;20033;-80
2021/03/28 01:02:14;;;;;;;0.43;0.20;;;20.60;50.50;;;;;;5033587;28;20025;-80
2021/03/28 01:04:47;;;;;;;0.70;0.20;;;20.60;50.60;;;;;;5046611;28;20040;-81
2021/03/28 01:07:37;;;;;;;0.98;0.10;;;20.60;50.50;;;;;;5031050;28;20033;-81
2021/03/28 01:10:40;;;;;;;1.42;0.20;;;20.60;50.50;;;;;;5018904;28;20037;-80
2021/03/28 01:13:31;;;;;;;0.43;0.13;;;20.60;50.80;;;;;;5015982;28;20159;-81
2021/03/28 01:16:19;;;;;;;0.77;0.10;;;20.60;50.50;;;;;;5033168;28;20131;-81
2021/03/28 01:19:17;;;;;;;0.60;0.10;;;20.60;50.60;;;;;;5013992;28;20075;-80
2021/03/28 01:22:19;;;;;;;0.50;0.30;;;20.50;50.50;;;;;;5025961;28;20053;-81
2021/03/28 01:24:51;;;;;;;0.70;0.20;;;20.50;50.50;;;;;;5009034;28;20057;-80
2021/03/28 01:27:20;;;;;;;0.57;0.10;;;20.60;50.60;;;;;;5034056;28;20021;-80
2021/03/28 01:29:48;;;;;;;0.40;0.10;;;20.60;50.60;;;;;;5013948;28;20037;-80
2021/03/28 01:32:26;;;;;;;1.55;0.30;;;20.50;50.50;;;;;;5046239;28;20033;-80
2021/03/28 01:35:09;;;;;;;1.50;0.32;;;20.60;50.70;;;;;;5015560;28;20504;-80
2021/03/28 01:38:02;;;;;;;1.13;0.20;;;20.50;50.60;;;;;;5029781;28;20037;-80
2021/03/28 01:40:54;;;;;;;2.08;0.20;;;20.50;50.60;;;;;;5046422;28;20048;-80
2021/03/28 01:43:24;;;;;;;1.00;0.15;;;20.50;50.60;;;;;;5032497;28;20033;-81
2021/03/28 01:46:28;;;;;;;2.13;0.20;;;20.50;51.00;;;;;;5015006;28;20120;-80
2021/03/28 01:49:00;;;;;;;1.33;0.20;;;20.50;50.60;;;;;;5005042;28;20041;-80
2021/03/28 01:51:28;;;;;;;;;;;20.50;50.60;;;;;;5054518;28;20029;-81
2021/03/28 01:54:31;;;;;;;0.57;0.10;;;20.50;50.50;;;;;;5012496;28;19917;-80
2021/03/28 01:57:24;;;;;;;1.15;0.10;;;20.50;50.60;;;;;;5029186;28;20493;-80
2021/03/28 01:59:57;;;;;;;0.40;0.10;;;20.50;50.50;;;;;;5052898;28;20056;-80
2021/03/28 02:02:31;;;;;;;1.85;0.20;;;20.50;50.40;;;;;;5031435;28;20027;-80
2021/03/28 02:05:31;;;;;;;1.25;0.20;;;20.50;50.50;;;;;;5046337;28;20029;-80
2021/03/28 02:08:28;;;;;;;1.23;0.13;;;20.50;50.50;;;;;;5030378;28;20091;-81
2021/03/28 02:10:57;;;;;;;0.80;0.20;;;20.50;50.50;;;;;;5013819;28;20036;-81
2021/03/28 02:13:43;;;;;;;1.17;0.20;;;20.50;50.50;;;;;;5033418;28;20397;-81
2021/03/28 02:16:17;;;;;;;0.60;0.20;;;20.50;50.50;;;;;;5015839;28;20116;-80
2021/03/28 02:18:56;;;;;;;1.50;0.20;;;20.50;50.60;;;;;;5008719;28;20400;-80
2021/03/28 02:21:46;;;;;;;2.30;0.17;;;20.50;50.60;;;;;;5029492;28;20021;-80
2021/03/28 02:24:28;;;;;;;1.27;0.20;;;20.50;50.60;;;;;;5008373;28;20370;-80
2021/03/28 02:27:32;;;;;;;1.05;0.20;;;20.40;50.50;;;;;;5032107;28;20021;-81
2021/03/28 02:30:04;;;;;;;0.47;0.10;;;20.40;50.50;;;;;;4972783;28;20033;-80
2021/03/28 02:32:45;;;;;;;0.50;0.10;;;20.40;50.50;;;;;;5028675;28;20021;-80
2021/03/28 02:35:38;;;;;;;0.65;0.17;;;20.50;50.60;;;;;;5015284;28;20083;-80
2021/03/28 02:38:32;;;;;;;1.52;0.25;;;20.50;51.10;;;;;;5032056;28;20032;-81
2021/03/28 02:41:13;;;;;;;0.65;0.10;;;20.40;50.60;;;;;;5031024;28;20025;-81
2021/03/28 02:44:11;;;;;;;0.47;0.20;;;20.40;50.60;;;;;;5011091;28;20028;-81
2021/03/28 02:47:14;;;;;;;1.00;0.30;;;20.40;50.50;;;;;;5032020;28;20024;-80
2021/03/28 02:50:01;;;;;;;0.60;0.30;;;20.40;50.50;;;;;;5014905;28;20120;-82
2021/03/28 02:52:54;;;;;;;1.45;0.20;;;20.40;50.50;;;;;;5029017;28;20430;-81
2021/03/28 02:56:05;;;;;;;0.70;0.30;;;20.40;50.50;;;;;;5017697;28;20032;-81
2021/03/28 02:58:40;;;;;;;0.52;0.10;;;20.40;50.60;;;;;;5018303;28;20030;-81
2021/03/28 03:01:37;;;;;;;1.25;0.10;;;20.40;50.60;;;;;;5034269;28;20021;-80
2021/03/28 03:04:41;;;;;;;0.85;0.30;;;20.40;50.60;;;;;;5000291;28;20113;-80
2021/03/28 03:07:20;;;;;;;0.90;0.20;;;20.40;50.80;;;;;;5022689;28;20023;-81
2021/03/28 03:10:08;;;;;;;0.75;0.28;;;20.40;50.60;;;;;;5012270;28;20507;-81
2021/03/28 03:12:58;;;;;;;0.50;0.10;;;20.40;50.70;;;;;;5028301;28;20037;-81
2021/03/28 03:15:31;;;;;;;1.13;0.30;;;20.40;50.70;;;;;;5031876;28;20036;-81
2021/03/28 03:18:34;;;;;;;1.30;0.20;;;20.40;50.70;;;;;;5050639;28;20029;-81
2021/03/28 03:21:34;;;;;;;0.43;0.10;;;20.40;50.80;;;;;;5012868;28;20025;-80
2021/03/28 03:24:11;;;;;;;0.45;0.10;;;20.40;50.90;;;;;;5010112;28;20664;-80
2021/03/28 03:26:43;;;;;;;0.68;0.20;;;20.40;50.80;;;;;;5047757;28;20029;-80
2021/03/28 03:29:33;;;;;;;1.83;0.20;;;20.30;50.80;;;;;;5049809;28;20037;-80
2021/03/28 03:32:35;;;;;;;0.50;0.10;;;20.30;50.80;;;;;;5016482;28;20034;-80
2021/03/28 03:35:06;;;;;;;1.02;0.20;;;20.30;50.70;;;;;;5046565;28;20033;-79
2021/03/28 03:37:37;;;;;;;0.30;0.10;;;20.30;50.70;;;;;;5030507;28;20044;-81
2021/03/28 03:40:24;;;;;;;0.47;0.10;;;20.30;50.80;;;;;;5014442;28;20014;-80
2021/03/28 03:43:17;;;;;;;0.80;0.28;;;20.30;50.80;;;;;;5031039;28;20066;-80
2021/03/28 03:46:06;;;;;;;0.70;0.20;;;20.30;50.80;;;;;;5029145;28;20022;-80
2021/03/28 03:48:35;;;;;;;0.80;0.10;;;20.30;50.90;;;;;;5028501;28;20037;-81
2021/03/28 03:51:26;;;;;;;0.40;0.10;;;20.30;50.80;;;;;;5047531;28;20180;-80
2021/03/28 03:54:04;;;;;;;0.38;0.10;;;20.30;50.90;;;;;;5028187;28;20032;-80
2021/03/28 03:56:37;;;;;;;0.45;0.13;;;20.30;51.00;;;;;;5015233;28;20024;-80
2021/03/28 03:59:48;;;;;;;1.65;0.30;;;20.30;51.00;;;;;;5046453;28;20040;-80
2021/03/28 04:02:38;;;;;;;1.05;0.10;;;20.30;51.10;;;;;;5010891;28;20021;-80
2021/03/28 04:05:40;;;;;;;1.27;0.20;;;20.30;51.00;;;;;;5046642;28;20044;-80
2021/03/28 04:08:37;;;;;;;1.48;0.30;;;20.30;51.00;;;;;;5025065;28;20017;-80
2021/03/28 04:11:49;;;;;;;1.02;0.22;;;20.30;51.10;;;;;;5033357;28;20082;-81
2021/03/28 04:14:20;;;;;;;1.08;0.22;;;20.30;51.10;;;;;;5027274;28;20032;-80
2021/03/28 04:17:14;;;;;;;0.47;0.20;;;20.30;51.10;;;;;;5044974;28;20072;-80
2021/03/28 04:19:43;;;;;;;0.80;0.15;;;20.30;51.10;;;;;;5025326;28;20030;-81
2021/03/28 04:22:22;;;;;;;0.93;0.10;;;20.30;51.20;;;;;;5048701;28;20031;-80
2021/03/28 04:25:09;;;;;;;0.43;0.10;;;20.30;51.30;;;;;;5029751;28;20083;-80
2021/03/28 04:27:54;;;;;;;0.38;0.10;;;20.30;51.20;;;;;;5013558;28;20063;-80
2021/03/28 04:30:57;;;;;;;0.77;0.17;;;20.30;51.20;;;;;;5026254;28;20087;-80
2021/03/28 04:33:38;;;;;;;0.50;0.10;;;20.30;51.40;;;;;;5025773;28;20028;-80
2021/03/28 04:36:28;;;;;;;0.60;0.10;;;20.30;51.40;;;;;;5026698;28;20028;-80
2021/03/28 04:39:12;;;;;;;0.75;0.10;;;20.30;51.50;;;;;;5033701;28;20048;-81
2021/03/28 04:42:16;;;;;;;0.40;0.10;;;20.20;51.40;;;;;;5049797;28;20034;-80
2021/03/28 04:44:57;;;;;;;1.17;0.25;;;20.30;51.60;;;;;;5016905;28;20103;-80
2021/03/28 04:47:36;;;;;;;1.25;0.20;;;20.30;51.60;;;;;;5033474;28;20021;-81
2021/03/28 04:50:38;;;;;;;0.70;0.10;;;20.20;51.70;;;;;;5048321;28;20634;-81
2021/03/28 04:53:42;;;;;;;0.30;0.10;;;20.20;51.80;;;;;;5010809;28;20031;-80
2021/03/28 04:56:47;;;;;;;1.08;0.10;;;20.30;51.90;;;;;;5045171;28;21467;-80
2021/03/28 04:59:39;;;;;;;0.50;0.10;;;20.20;52.00;;;;;;5025687;28;20027;-80
2021/03/28 05:03:04;;;;;;;0.70;0.15;;;20.20;52.00;;;;;;5027253;28;20608;-81
2021/03/28 05:06:09;;;;;;;1.20;0.10;;;20.30;52.10;;;;;;5029098;28;20134;-80
2021/03/28 05:08:58;;;;;;;1.80;0.10;;;20.30;52.10;;;;;;5009378;28;20501;-80
2021/03/28 05:11:30;;;;;;;1.00;0.20;;;20.20;52.10;;;;;;5032418;28;20024;-80
2021/03/28 05:14:26;;;;;;;0.70;0.20;;;20.20;52.20;;;;;;5044240;28;20119;-80
2021/03/28 05:17:07;;;;;;;0.82;0.10;;;20.20;52.30;;;;;;5025216;28;20033;-80
2021/03/28 05:19:53;;;;;;;1.75;0.10;;;20.20;52.40;;;;;;5010391;28;20029;-80
2021/03/28 05:22:41;;;;;;;0.60;0.10;;;20.20;52.50;;;;;;5010593;28;20029;-80
2021/03/28 05:25:50;;;;;;;0.70;0.20;;;20.20;52.50;;;;;;5029815;28;20040;-80
2021/03/28 05:28:25;;;;;;;0.75;0.20;;;20.20;52.60;;;;;;5014370;28;20033;-81
2021/03/28 05:31:24;;;;;;;0.95;0.30;;;20.20;52.70;;;;;;5040638;28;20128;-80
2021/03/28 05:34:23;;;;;;;0.63;0.20;;;20.20;52.70;;;;;;5034966;28;20106;-81
2021/03/28 05:37:15;;;;;;;0.77;0.10;;;20.20;52.80;;;;;;5020041;28;20056;-80
2021/03/28 05:40:05;;;;;;;0.32;0.10;;;20.20;52.90;;;;;;5013959;28;20090;-81
2021/03/28 05:43:09;;;;;;;0.45;0.10;;;20.20;53.00;;;;;;5019208;28;20482;-81
2021/03/28 05:45:44;;;;;;;0.50;0.10;;;20.20;53.10;;;;;;5027739;28;20044;-80
2021/03/28 05:48:22;;;;;;;0.32;0.10;;;20.20;53.20;;;;;;5010565;28;20029;-80
2021/03/28 05:50:57;;;;;;;0.82;0.10;;;20.10;53.30;;;;;;5046873;28;20033;-80
2021/03/28 05:53:55;;;;;;;0.35;0.10;;;20.20;53.50;;;;;;5033085;28;20046;-80
2021/03/28 05:56:39;;;;;;;0.60;0.10;;;20.10;53.50;;;;;;5010392;28;20040;-80
2021/03/28 05:59:30;;;;;;;0.70;0.10;;;20.20;53.60;;;;;;5028460;28;20114;-80
2021/03/28 06:02:20;;;;;;;0.50;0.10;;;20.20;53.70;;;;;;5016098;28;20057;-81
2021/03/28 06:04:48;;;;;;;0.60;0.17;;;20.20;54.00;;;;;;5030265;28;20033;-80
2021/03/28 06:07:35;;;;;;;1.00;0.20;;;20.20;54.00;;;;;;5013030;28;20571;-80
2021/03/28 06:10:19;;;;;;;0.60;0.10;;;20.20;54.20;;;;;;5018063;28;20098;-80
2021/03/28 06:13:18;;;;;;;0.30;0.10;;;20.20;54.10;;;;;;5033682;28;20090;-81
2021/03/28 06:16:12;;;;;;;0.57;0.10;;;20.10;54.30;;;;;;5040760;28;20068;-80
2021/03/28 06:18:56;;;;;;;0.40;0.10;;;20.10;54.40;;;;;;5027360;28;20029;-80
2021/03/28 06:21:39;;;;;;;1.67;0.20;;;20.20;54.70;;;;;;5056412;28;20453;-80
2021/03/28 06:25:26;;;;;;;0.30;0.10;;;20.10;55.00;;;;;;5012764;28;20091;-79
2021/03/28 06:28:23;;;;;;;0.35;0.10;;;20.10;55.20;;;;;;5011121;28;20041;-79
2021/03/28 06:31:39;;;;;;;0.52;0.10;;;20.20;55.50;;;;;;5049470;28;20404;-79
2021/03/28 06:34:31;;;;;;;0.20;0.05;;;20.10;55.60;;;;;;5030394;28;20030;-80
2021/03/28 06:37:12;;;;;;;0.80;0.20;;;20.10;55.80;;;;;;5037134;28;20590;-80
2021/03/28 06:40:02;;;;;;;1.20;0.10;;;20.10;55.90;;;;;;5026855;28;20025;-80
2021/03/28 06:43:11;;;;;;;0.65;0.10;;;20.10;56.20;;;;;;5045818;28;20044;-79
2021/03/28 06:46:07;;;;;;;0.32;0.10;;;20.20;56.30;;;;;;5035718;28;20029;-79
2021/03/28 06:49:03;;;;;;;1.98;0.20;;;20.10;56.50;;;;;;5042762;28;20102;-79
2021/03/28 06:51:50;;;;;;;0.50;0.10;;;20.20;56.70;;;;;;5050374;28;20036;-79
2021/03/28 06:54:35;;;;;;;1.63;0.10;;;20.20;57.60;;;;;;5008979;28;20056;-79
2021/03/28 06:57:22;;;;;;;2.30;0.30;;;20.10;57.80;;;;;;5047238;28;20033;-79
2021/03/28 07:00:30;;;;;;;0.65;0.10;;;20.20;58.10;;;;;;5031607;28;20037;-80
2021/03/28 07:03:40;;;;;;;0.57;0.20;;;20.10;58.40;;;;;;5034930;28;20040;-79
2021/03/28 07:06:44;;;;;;;0.73;0.20;;;20.20;59.10;;;;;;5023766;28;20117;-78
2021/03/28 07:09:41;;;;;;;0.73;0.20;;;20.10;59.00;;;;;;5029036;28;20029;-79
2021/03/28 07:12:41;;;;;;;0.60;0.10;;;20.10;59.40;;;;;;5029280;28;20059;-81
2021/03/28 07:15:40;;;;;;;1.50;0.15;;;20.10;59.60;;;;;;5035549;28;20039;-82
2021/03/28 07:18:44;;;;;;;0.80;0.20;;;20.10;59.70;;;;;;5027499;28;20033;-81
2021/03/28 07:22:07;;;;;;;0.70;0.10;;;20.10;59.60;;;;;;5042121;28;20088;-82
2021/03/28 07:24:45;;;;;;;1.25;0.10;;;20.10;59.50;;;;;;5044840;28;20033;-82
2021/03/28 07:27:50;;;;;;;1.05;0.10;;;20.10;59.50;;;;;;5033285;28;20459;-80
2021/03/28 07:30:47;;;;;;;1.83;0.10;;;20.10;59.40;;;;;;5046666;28;20212;-82
2021/03/28 07:34:09;;;;;;;0.85;0.10;;;20.10;59.20;;;;;;5035368;28;20132;-83
2021/03/28 07:37:13;;;;;;;1.45;0.10;;;20.10;59.40;;;;;;5011974;28;20063;-80
2021/03/28 07:40:25;;;;;;;1.08;0.20;;;20.10;59.40;;;;;;5031127;28;20123;-81
2021/03/28 07:43:14;;;;;;;0.90;0.20;;;20.10;59.30;;;;;;5022668;28;20025;-81
2021/03/28 07:46:25;;;;;;;1.02;0.10;;;20.10;59.40;;;;;;5028412;28;20511;-81
2021/03/28 07:49:23;;;;;;;1.17;0.20;;;20.10;59.30;;;;;;5025176;28;20032;-80
2021/03/28 07:52:32;;;;;;;1.75;0.13;;;20.10;59.40;;;;;;5011214;28;20025;-81
2021/03/28 07:54:57;;;;;;;1.23;0.10;;;20.10;59.50;;;;;;5013616;28;20052;-81
2021/03/28 07:57:42;;;;;;;0.98;0.38;;;20.10;59.40;;;;;;5032796;28;20415;-81
2021/03/28 08:00:34;;;;;;;1.52;0.10;;;20.10;59.10;;;;;;5010991;28;20025;-83
2021/03/28 08:03:40;;;;;;;0.47;0.20;;;20.20;59.20;;;;;;5030289;28;20392;-82
2021/03/28 08:06:24;;;;;;;0.85;0.10;;;20.20;59.30;;;;;;5012698;28;20083;-82
2021/03/28 08:09:41;;;;;;;1.90;0.10;;;20.10;59.20;;;;;;5032922;28;20095;-82
2021/03/28 08:12:13;;;;;;;0.43;0.10;;;20.20;59.10;;;;;;5033890;28;20024;-81
2021/03/28 08:15:21;;;;;;;2.25;0.20;;;20.10;58.90;;;;;;5035888;28;20036;-80
2021/03/28 08:18:05;;;;;;;2.10;0.20;;;20.10;58.90;;;;;;5004696;28;20033;-81
2021/03/28 08:21:08;;;;;;;0.65;0.17;;;20.20;58.90;;;;;;5030613;28;20055;-80
2021/03/28 08:24:01;;;;;;;3.75;0.10;;;20.10;58.80;;;;;;5010021;28;20025;-81
2021/03/28 08:26:47;;;;;;;0.63;0.10;;;20.10;58.80;;;;;;5007607;28;20603;-81
2021/03/28 08:29:31;;;;;;;1.77;0.13;;;20.20;58.90;;;;;;5027923;28;20028;-81
2021/03/28 08:32:15;;;;;;;0.63;0.10;;;20.20;58.90;;;;;;5049275;28;20154;-80
2021/03/28 08:34:57;;;;;;;1.48;0.20;;;20.20;58.90;;;;;;5012176;28;20032;-81
2021/03/28 08:37:59;;;;;;;0.33;0.07;;;20.20;58.70;;;;;;5012683;28;20027;-81
2021/03/28 08:40:36;;;;;;;1.17;0.10;;;20.20;58.80;;;;;;4951554;28;20043;-81
2021/03/28 08:43:59;;;;;;;0.90;0.20;;;20.20;58.90;;;;;;5032855;28;20459;-81
2021/03/28 08:47:07;;;;;;;1.55;0.20;;;20.20;58.90;;;;;;5026209;28;20071;-81
2021/03/28 08:50:12;;;;;;;0.60;0.10;;;20.10;59.30;;;;;;5018912;28;20043;-81
2021/03/28 08:53:03;;;;;;;1.60;0.15;;;20.10;58.80;;;;;;5030844;28;20045;-80
2021/03/28 08:56:06;;;;;;;1.85;0.10;;;20.20;58.80;;;;;;5037301;28;20055;-80
2021/03/28 08:59:00;;;;;;;0.75;0.10;;;20.20;58.80;;;;;;5025428;28;20052;-81
2021/03/28 09:01:54;;;;;;;0.45;0.08;;;20.20;58.80;;;;;;5024104;28;20021;-80
2021/03/28 09:04:46;;;;;;;1.10;0.10;;;20.20;58.70;;;;;;5027681;28;20081;-80
2021/03/28 09:07:33;;;;;;;0.65;0.10;;;20.20;58.70;;;;;;5008076;28;20022;-80
2021/03/28 09:10:48;;;;;;;0.55;0.00;;;20.20;58.60;;;;;;5034742;28;20117;-80
2021/03/28 09:13:20;;;;;;;1.05;0.20;;;20.20;58.70;;;;;;5033924;28;20021;-80
2021/03/28 09:16:52;;;;;;;0.90;0.10;;;20.20;58.70;;;;;;5034120;28;20036;-80
2021/03/28 09:19:46;;;;;;;1.10;0.10;;;20.20;58.50;;;;;;4986254;28;20601;-80
2021/03/28 09:22:47;;;;;;;0.30;0.10;;;20.30;58.60;;;;;;4977854;28;20425;-83
2021/03/28 09:25:50;;;;;;;0.60;0.10;;;20.30;58.50;;;;;;5026218;28;20171;-81
2021/03/28 09:28:58;;;;;;;0.40;0.10;;;20.30;58.50;;;;;;5005289;28;20045;-81
2021/03/28 09:31:45;;;;;;;0.50;0.10;;;20.30;58.40;;;;;;5030610;28;20094;-81
2021/03/28 09:34:54;;;;;;;0.40;0.10;;;20.40;58.30;;;;;;5033743;28;20116;-81
2021/03/28 09:37:39;;;;;;;0.32;0.10;;;20.40;58.40;;;;;;5030916;28;20021;-82
2021/03/28 09:40:38;;;;;;;0.55;0.17;;;20.40;58.40;;;;;;5052618;28;20069;-80
2021/03/28 09:43:19;;;;;;;0.65;0.10;;;20.40;58.20;;;;;;5014748;28;20029;-80
2021/03/28 09:46:26;;;;;;;0.80;0.10;;;20.40;58.20;;;;;;5033819;28;20865;-81
2021/03/28 09:49:22;;;;;;;0.52;0.10;;;20.50;58.20;;;;;;5013193;28;20037;-82
2021/03/28 09:52:17;;;;;;;0.73;0.10;;;20.50;58.20;;;;;;5018167;28;20052;-80
2021/03/28 09:54:52;;;;;;;0.40;0.20;;;20.50;58.20;;;;;;5015860;28;20171;-81
2021/03/28 09:57:39;;;;;;;0.52;0.10;;;20.50;58.10;;;;;;5011515;28;20159;-81
2021/03/28 10:00:42;;;;;;;0.45;0.10;;;20.50;58.70;;;;;;5038125;28;20097;-81
2021/03/28 10:03:35;;;;;;;1.75;0.13;;;20.50;58.20;;;;;;5034237;28;20029;-82
2021/03/28 10:06:23;;;;;;;0.75;0.20;;;20.50;58.30;;;;;;5035970;28;20039;-81
2021/03/28 10:09:10;;;;;;;0.77;0.20;;;20.50;58.30;;;;;;5012356;28;20021;-81
2021/03/28 10:12:00;;;;;;;1.02;0.20;;;20.50;58.40;;;;;;5040611;28;20385;-81
2021/03/28 10:14:29;;;;;;;;;;;20.50;58.30;;;;;;5021528;28;20021;-80
2021/03/28 10:17:20;;;;;;;0.75;0.10;;;20.50;58.30;;;;;;5059300;28;19999;-80
2021/03/28 10:19:53;;;;;;;0.63;0.10;;;20.50;58.30;;;;;;5016686;28;20039;-79
2021/03/28 10:22:51;;;;;;;0.30;0.00;;;20.60;58.40;;;;;;5022072;28;20505;-80
2021/03/28 10:25:29;;;;;;;0.40;0.10;;;20.60;58.20;;;;;;5031880;28;20052;-80
2021/03/28 10:28:06;;;;;;;0.90;0.15;;;20.60;58.30;;;;;;5027858;28;20206;-79
2021/03/28 10:30:58;;;;;;;0.40;0.10;;;20.50;58.30;;;;;;5031445;28;20043;-79
2021/03/28 10:33:48;;;;;;;0.68;0.20;;;20.60;58.20;;;;;;5031062;28;20052;-80
2021/03/28 10:36:45;;;;;;;0.43;0.00;;;20.60;58.10;;;;;;5005349;28;20087;-81
2021/03/28 10:39:18;;;;;;;0.40;0.10;;;20.60;58.30;;;;;;5030488;28;20041;-80
2021/03/28 10:41:56;;;;;;;0.60;0.10;;;20.60;58.20;;;;;;5013399;28;20053;-80
2021/03/28 10:44:40;;;;;;;0.52;0.10;;;20.60;58.00;;;;;;5012531;28;20017;-80
2021/03/28 10:47:43;;;;;;;0.90;0.13;;;20.60;58.10;;;;;;5015887;28;20496;-82
2021/03/28 10:50:33;;;;;;;0.80;0.20;;;20.60;58.00;;;;;;5015795;28;20025;-80
2021/03/28 10:53:26;;;;;;;0.73;0.10;;;20.70;58.10;;;;;;5014718;28;20025;-80
2021/03/28 10:56:22;;;;;;;0.77;0.13;;;20.70;57.90;;;;;;5000836;28;20090;-80
2021/03/28 10:59:10;;;;;;;1.48;0.20;;;20.70;58.00;;;;;;5015983;28;20033;-80
2021/03/28 11:02:13;;;;;;;2.05;0.10;;;20.70;57.80;;;;;;5029860;28;20025;-80
2021/03/28 11:04:47;;;;;;;1.05;0.10;;;20.70;57.90;;;;;;5036660;28;20086;-81
2021/03/28 11:07:22;;;;;;;0.98;0.20;;;20.70;57.90;;;;;;5034663;28;20028;-79
2021/03/28 11:10:12;;;;;;;0.47;0.10;;;20.70;57.90;;;;;;5038254;28;20567;-80
2021/03/28 11:13:10;;;;;;;0.88;0.30;;;20.70;57.90;;;;;;5033661;28;20080;-80
2021/03/28 11:15:59;;;;;;;0.57;0.10;;;20.70;57.80;;;;;;5018575;28;20041;-80
2021/03/28 11:18:48;;;;;;;2.00;0.13;;;20.70;57.80;;;;;;5014659;28;20532;-81
2021/03/28 11:21:32;;;;;;;0.30;0.05;;;20.80;57.90;;;;;;5029064;28;20081;-79
2021/03/28 11:24:17;;;;;;;0.43;0.13;;;20.80;57.90;;;;;;5028889;28;20060;-80
2021/03/28 11:26:48;;;;;;;0.40;0.10;;;20.80;57.90;;;;;;5029048;28;20116;-81
2021/03/28 11:29:26;;;;;;;0.43;0.10;;;20.70;57.70;;;;;;5029263;28;20072;-80
2021/03/28 11:31:58;;;;;;;1.83;0.10;;;20.70;57.80;;;;;;5010412;28;21699;-80
2021/03/28 11:34:36;;;;;;;;;;;20.70;57.80;;;;;;5030132;28;20586;-80
2021/03/28 11:37:23;;;;;;;1.25;0.10;;;20.70;57.80;;;;;;5027985;28;19909;-79
2021/03/28 11:40:04;;;;;;;1.10;0.10;;;20.70;57.60;;;;;;5013791;28;20029;-80
2021/03/28 11:42:30;;;;;;;0.47;0.10;;;20.70;57.80;;;;;;5021794;28;20021;-81
2021/03/28 11:44:59;;;;;;;0.60;0.10;;;20.70;57.80;;;;;;5018205;28;20022;-80
2021/03/28 11:47:29;;;;;;;0.35;0.10;;;20.70;57.80;;;;;;5009200;28;20029;-80
2021/03/28 11:50:06;;;;;;;0.63;0.10;;;20.70;57.80;;;;;;5048401;28;20081;-80
2021/03/28 11:52:56;;;;;;;0.55;0.10;;;20.70;57.90;;;;;;5033887;28;20033;-80
2021/03/28 11:55:42;;;;;;;0.40;0.10;;;20.70;58.00;;;;;;5044177;28;20026;-80
2021/03/28 11:58:11;;;;;;;0.68;0.10;;;20.70;57.90;;;;;;5034011;28;20547;-80
2021/03/28 12:00:52;;;;;;;0.22;0.05;;;20.70;57.90;;;;;;5039819;28;20017;-79
2021/03/28 12:03:21;;;;;;;1.10;0.20;;;20.70;57.80;;;;;;5009727;28;20114;-79
2021/03/28 12:06:01;;;;;;;0.88;0.10;;;20.70;57.80;;;;;;5047133;28;20033;-79
2021/03/28 12:08:32;;;;;;;0.65;0.10;;;20.70;57.90;;;;;;5012637;28;20035;-81
2021/03/28 12:11:19;;;;;;;0.68;0.10;;;20.70;57.90;;;;;;5031939;28;20096;-80
2021/03/28 12:13:49;;;;;;;0.40;0.10;;;20.80;57.70;;;;;;5027915;28;20514;-82
2021/03/28 12:16:15;;;;;;;0.43;0.10;;;20.80;57.70;;;;;;5010124;28;20032;-80
2021/03/28 12:18:49;;;;;;;1.25;0.10;;;20.70;57.90;;;;;;5008373;28;20021;-80
2021/03/28 12:21:30;;;;;;;0.88;0.10;;;20.90;60.80;;;;;;5010094;28;20017;-81
2021/03/28 12:24:08;;;;;;;1.10;0.10;;;21.00;61.00;;;;;;5025192;28;20019;-79
2021/03/28 12:26:37;;;;;;;0.77;0.10;;;20.90;61.30;;;;;;5023307;28;20593;-78
2021/03/28 12:29:10;;;;;;;0.17;0.00;;;20.90;62.70;;;;;;5011296;28;20029;-78
2021/03/28 12:31:44;;;;;;;0.30;0.10;;;20.90;62.30;;;;;;5026757;28;20038;-78
2021/03/28 12:34:35;;;;;;;1.65;0.10;;;20.90;62.20;;;;;;5023208;28;20040;-78
2021/03/28 12:37:10;;;;;;;0.52;0.10;;;20.80;62.00;;;;;;5022595;28;20029;-79
2021/03/28 12:39:44;;;;;;;0.77;0.20;;;20.80;61.80;;;;;;5030175;28;20052;-79
2021/03/28 12:42:26;;;;;;;1.08;0.10;;;20.80;61.50;;;;;;5015245;28;20063;-78
2021/03/28 12:44:56;;;;;;;2.20;0.10;;;20.90;61.50;;;;;;5018320;28;20049;-78
2021/03/28 12:47:27;;;;;;;2.50;0.30;;;20.90;61.30;;;;;;5006478;28;20095;-78
2021/03/28 12:49:55;;;;;;;;;;;20.80;61.20;;;;;;5024280;28;20566;-78
2021/03/28 12:52:36;;;;;;;0.70;0.20;;;20.80;61.50;;;;;;5041349;28;19908;-78
2021/03/28 12:55:10;;;;;;;0.95;0.20;;;20.90;61.50;;;;;;5036960;28;20029;-78
2021/03/28 12:57:44;;;;;;;1.58;0.28;;;20.90;61.70;;;;;;5022005;28;20034;-78
2021/03/28 13:00:19;;;;;;;1.00;0.13;;;20.80;61.80;;;;;;5023463;28;20106;-78
2021/03/28 13:02:47;;;;;;;1.30;0.22;;;20.90;61.90;;;;;;5023042;28;20036;-78
2021/03/28 13:05:12;;;;;;;1.67;0.22;;;20.80;62.50;;;;;;5045872;28;20031;-78
2021/03/28 13:07:41;;;;;;;1.80;0.30;;;20.90;62.40;;;;;;5025279;28;20029;-78
2021/03/28 13:10:15;;;;;;;4.32;0.20;;;20.80;62.40;;;;;;5023983;28;20049;-78
2021/03/28 13:12:43;;;;;;;1.38;0.30;;;20.80;62.40;;;;;;5006840;28;20061;-79
2021/03/28 13:15:22;;;;;;;2.83;0.70;;;20.90;62.70;;;;;;5006928;28;20033;-78
2021/03/28 13:18:11;;;;;;;3.10;0.38;;;20.90;62.80;;;;;;5020996;28;20048;-79
2021/03/28 13:20:42;;;;;;;2.63;0.30;;;20.90;62.80;;;;;;5018812;28;20596;-78
2021/03/28 13:23:20;;;;;;;1.55;0.20;;;20.90;62.60;;;;;;5009579;28;20029;-79
2021/03/28 13:25:45;;;;;;;2.08;0.52;;;20.90;62.50;;;;;;5008674;28;20140;-79
2021/03/28 13:28:11;;;;;;;2.45;0.40;;;20.90;62.80;;;;;;5028435;28;20095;-78
2021/03/28 13:30:41;;;;;;;2.40;0.22;;;20.90;62.80;;;;;;5043431;28;20042;-78
2021/03/28 13:33:37;;;;;;;5.32;0.57;;;20.90;63.00;;;;;;5026517;28;20056;-78
2021/03/28 13:36:15;;;;;;;3.33;0.40;;;20.90;63.40;;;;;;5018035;28;20456;-78
2021/03/28 13:38:44;;;;;;;3.10;0.25;;;20.90;63.30;;;;;;5028056;28;20033;-78
2021/03/28 13:41:28;;;;;;;3.20;0.30;;;20.90;63.40;;;;;;5032136;28;20090;-77
2021/03/28 13:44:20;;;;;;;1.77;0.40;;;20.90;63.60;;;;;;5035330;28;20029;-78
2021/03/28 13:46:58;;;;;;;1.60;0.20;;;20.90;63.60;;;;;;5023022;28;20029;-80
2021/03/28 13:49:45;;;;;;;3.40;0.25;;;20.90;64.70;;;;;;5044441;28;20033;-79
2021/03/28 13:52:15;;;;;;;3.78;0.60;;;20.80;64.40;;;;;;5040219;28;20032;-79
2021/03/28 13:54:44;;;;;;;1.73;0.30;;;20.90;64.80;;;;;;5011543;28;20029;-78
2021/03/28 13:57:15;;;;;;;1.92;0.15;;;20.80;64.60;;;;;;5010142;28;20033;-78
2021/03/28 13:59:58;;;;;;;2.90;0.45;;;20.90;65.20;;;;;;5014281;28;20078;-78
2021/03/28 14:02:27;;;;;;;2.30;0.25;;;20.80;65.20;;;;;;5040610;28;20078;-79
2021/03/28 14:05:05;;;;;;;1.38;0.25;;;20.90;65.80;;;;;;5026461;28;20116;-78
2021/03/28 14:07:44;;;;;;;2.10;0.15;;;20.90;65.30;;;;;;5040569;28;20032;-78
2021/03/28 14:10:13;;;;;;;1.42;0.40;;;20.80;66.30;;;;;;5026409;28;20082;-78
2021/03/28 14:13:13;;;;;;;2.38;0.22;;;20.90;65.90;;;;;;5013612;28;20048;-79
2021/03/28 14:16:07;;;;;;;1.67;0.40;;;20.80;66.20;;;;;;5029550;28;20029;-79
2021/03/28 14:18:39;;;;;;;2.13;0.30;;;20.70;66.60;;;;;;5030023;28;20041;-79
2021/03/28 14:21:24;;;;;;;0.52;0.15;;;20.80;67.60;;;;;;5029560;28;20032;-79
2021/03/28 14:24:08;;;;;;;1.65;0.28;;;;;;;;;;5008487;28;20029;-79
2021/03/28 14:26:34;;;;;;;1.80;0.45;;;;;;;;;;5027956;28;20051;-78
2021/03/28 14:29:00;;;;;;;2.42;0.20;;;;;;;;;;5028699;28;20040;-78